sensor_id;sensor_type;location;lat;lon;timestamp;pressure;altitude;pressure_sealevel;temperature;humidity
19751;BME280;4663;49.120;9.730;2023-08-06T00:00:38;97330.69;;;15.63;100.00
19751;BME280;4663;49.120;9.730;2023-08-06T00:03:04;97328.94;;;14.81;100.00
19751;BME280;4663;49.120;9.730;2023-08-06T00:05:29;97331.03;;;14.99;100.00
19751;BME280;4663;49.120;9.730;2023-08-06T00:07:54;97318.53;;;14.64;100.00
19751;BME280;4663;49.120;9.730;2023-08-06T00:10:20;97321.94;;;15.54;100.00
19751;BME280;4663;49.120;9.730;2023-08-06T00:12:45;97319.84;;;14.95;100.00
19751;BME280;4663;49.120;9.730;2023-08-06T00:15:11;97325.47;;;15.61;100.00
19751;BME280;4663;49.120;9.730;2023-08-06T00:17:37;97330.84;;;15.07;100.00
19751;BME280;4663;49.120;9.730;2023-08-06T00:20:03;97321.88;;;14.93;100.00
19751;BME280;4663;49.120;9.730;2023-08-06T00:22:37;97319.84;;;15.02;100.00
19751;BME280;4663;49.120;9.730;2023-08-06T00:25:04;97327.53;;;15.05;100.00
19751;BME280;4663;49.120;9.730;2023-08-06T00:27:30;97316.28;;;14.88;100.00
19751;BME280;4663;49.120;9.730;2023-08-06T00:29:55;97313.25;;;15.25;100.00
19751;BME280;4663;49.120;9.730;2023-08-06T00:32:21;97307.81;;;15.32;100.00
19751;BME280;4663;49.120;9.730;2023-08-06T00:34:47;97314.84;;;14.99;100.00
19751;BME280;4663;49.120;9.730;2023-08-06T00:37:17;97307.81;;;15.32;100.00
19751;BME280;4663;49.120;9.730;2023-08-06T00:39:43;97306.56;;;15.61;100.00
19751;BME280;4663;49.120;9.730;2023-08-06T00:42:09;97307.53;;;14.86;100.00
19751;BME280;4663;49.120;9.730;2023-08-06T00:44:35;97301.53;;;14.90;100.00
19751;BME280;4663;49.120;9.730;2023-08-06T00:47:01;97303.38;;;14.76;100.00
19751;BME280;4663;49.120;9.730;2023-08-06T00:49:26;97303.63;;;15.02;100.00
19751;BME280;4663;49.120;9.730;2023-08-06T00:51:52;97299.31;;;15.41;100.00
19751;BME280;4663;49.120;9.730;2023-08-06T00:54:17;97295.28;;;15.78;98.15
19751;BME280;4663;49.120;9.730;2023-08-06T00:56:43;97289.91;;;15.71;99.27
19751;BME280;4663;49.120;9.730;2023-08-06T00:59:09;97289.94;;;15.37;99.90
19751;BME280;4663;49.120;9.730;2023-08-06T01:01:35;97299.03;;;15.84;99.53
19751;BME280;4663;49.120;9.730;2023-08-06T01:04:01;97283.72;;;15.10;100.00
19751;BME280;4663;49.120;9.730;2023-08-06T01:06:43;97289.09;;;15.44;98.44
19751;BME280;4663;49.120;9.730;2023-08-06T01:17:23;97274.34;;;14.99;100.00
19751;BME280;4663;49.120;9.730;2023-08-06T01:19:49;97280.41;;;15.14;100.00
19751;BME280;4663;49.120;9.730;2023-08-06T01:22:14;97274.13;;;15.07;100.00
19751;BME280;4663;49.120;9.730;2023-08-06T01:24:41;97267.91;;;15.27;100.00
19751;BME280;4663;49.120;9.730;2023-08-06T01:27:17;97273.09;;;14.81;100.00
19751;BME280;4663;49.120;9.730;2023-08-06T01:29:55;97270.59;;;14.86;100.00
19751;BME280;4663;49.120;9.730;2023-08-06T01:32:22;97268.13;;;15.39;100.00
19751;BME280;4663;49.120;9.730;2023-08-06T01:34:49;97262.94;;;15.24;100.00
19751;BME280;4663;49.120;9.730;2023-08-06T01:37:15;97256.03;;;15.55;100.00
19751;BME280;4663;49.120;9.730;2023-08-06T01:39:42;97257.31;;;15.46;100.00
19751;BME280;4663;49.120;9.730;2023-08-06T01:42:08;97251.28;;;15.30;100.00
19751;BME280;4663;49.120;9.730;2023-08-06T01:44:34;97255.66;;;15.45;100.00
19751;BME280;4663;49.120;9.730;2023-08-06T01:46:59;97251.28;;;15.03;100.00
19751;BME280;4663;49.120;9.730;2023-08-06T01:49:24;97244.63;;;14.99;100.00
19751;BME280;4663;49.120;9.730;2023-08-06T01:51:50;97250.25;;;15.31;100.00
19751;BME280;4663;49.120;9.730;2023-08-06T01:54:15;97249.88;;;15.21;100.00
19751;BME280;4663;49.120;9.730;2023-08-06T01:56:41;97248.81;;;15.22;100.00
19751;BME280;4663;49.120;9.730;2023-08-06T01:59:06;97253.38;;;15.28;100.00
19751;BME280;4663;49.120;9.730;2023-08-06T02:01:31;97237.56;;;14.84;100.00
19751;BME280;4663;49.120;9.730;2023-08-06T02:03:57;97237.50;;;14.50;100.00
19751;BME280;4663;49.120;9.730;2023-08-06T02:06:22;97240.66;;;15.08;100.00
19751;BME280;4663;49.120;9.730;2023-08-06T02:08:47;97243.38;;;15.01;100.00
19751;BME280;4663;49.120;9.730;2023-08-06T02:11:13;97236.72;;;15.04;100.00
19751;BME280;4663;49.120;9.730;2023-08-06T02:13:38;97235.09;;;15.10;100.00
19751;BME280;4663;49.120;9.730;2023-08-06T02:16:07;97233.00;;;15.05;100.00
19751;BME280;4663;49.120;9.730;2023-08-06T02:18:33;97218.03;;;14.96;100.00
19751;BME280;4663;49.120;9.730;2023-08-06T02:20:59;97221.38;;;15.32;100.00
19751;BME280;4663;49.120;9.730;2023-08-06T02:23:26;97220.53;;;14.84;100.00
19751;BME280;4663;49.120;9.730;2023-08-06T02:26:02;97214.06;;;15.32;100.00
19751;BME280;4663;49.120;9.730;2023-08-06T02:28:31;97209.72;;;15.45;100.00
19751;BME280;4663;49.120;9.730;2023-08-06T02:30:57;97206.53;;;15.61;100.00
19751;BME280;4663;49.120;9.730;2023-08-06T02:33:22;97199.22;;;15.75;100.00
19751;BME280;4663;49.120;9.730;2023-08-06T02:35:48;97206.00;;;15.25;100.00
19751;BME280;4663;49.120;9.730;2023-08-06T02:38:13;97196.47;;;15.16;100.00
19751;BME280;4663;49.120;9.730;2023-08-06T02:40:47;97196.84;;;15.06;100.00
19751;BME280;4663;49.120;9.730;2023-08-06T02:43:13;97192.47;;;15.39;100.00
19751;BME280;4663;49.120;9.730;2023-08-06T02:45:38;97195.38;;;15.44;100.00
19751;BME280;4663;49.120;9.730;2023-08-06T02:48:04;97193.09;;;15.07;100.00
19751;BME280;4663;49.120;9.730;2023-08-06T02:50:29;97191.44;;;15.40;100.00
19751;BME280;4663;49.120;9.730;2023-08-06T02:52:55;97187.66;;;15.48;100.00
19751;BME280;4663;49.120;9.730;2023-08-06T02:55:20;97182.59;;;15.72;100.00
19751;BME280;4663;49.120;9.730;2023-08-06T02:57:45;97189.53;;;15.40;100.00
19751;BME280;4663;49.120;9.730;2023-08-06T03:00:11;97174.94;;;15.55;100.00
19751;BME280;4663;49.120;9.730;2023-08-06T03:02:37;97181.97;;;15.70;100.00
19751;BME280;4663;49.120;9.730;2023-08-06T03:05:02;97174.34;;;15.53;100.00
19751;BME280;4663;49.120;9.730;2023-08-06T03:07:28;97175.25;;;15.13;100.00
19751;BME280;4663;49.120;9.730;2023-08-06T03:09:54;97164.72;;;15.71;100.00
19751;BME280;4663;49.120;9.730;2023-08-06T03:12:19;97165.00;;;15.49;100.00
19751;BME280;4663;49.120;9.730;2023-08-06T03:14:45;97151.06;;;15.59;100.00
19751;BME280;4663;49.120;9.730;2023-08-06T03:17:10;97159.03;;;15.33;100.00
19751;BME280;4663;49.120;9.730;2023-08-06T03:19:36;97166.13;;;14.73;100.00
19751;BME280;4663;49.120;9.730;2023-08-06T03:22:01;97156.56;;;15.25;100.00
19751;BME280;4663;49.120;9.730;2023-08-06T03:24:26;97154.50;;;14.86;100.00
19751;BME280;4663;49.120;9.730;2023-08-06T03:26:52;97156.16;;;14.60;100.00
19751;BME280;4663;49.120;9.730;2023-08-06T03:29:17;97158.66;;;14.82;100.00
19751;BME280;4663;49.120;9.730;2023-08-06T03:31:42;97154.94;;;14.76;100.00
19751;BME280;4663;49.120;9.730;2023-08-06T03:34:08;97156.75;;;15.16;100.00
19751;BME280;4663;49.120;9.730;2023-08-06T03:36:33;97153.03;;;14.90;100.00
19751;BME280;4663;49.120;9.730;2023-08-06T03:38:58;97150.09;;;15.26;100.00
19751;BME280;4663;49.120;9.730;2023-08-06T03:41:24;97146.16;;;15.01;100.00
19751;BME280;4663;49.120;9.730;2023-08-06T03:43:49;97152.44;;;14.95;100.00
19751;BME280;4663;49.120;9.730;2023-08-06T03:46:14;97150.75;;;14.87;100.00
19751;BME280;4663;49.120;9.730;2023-08-06T03:48:40;97145.97;;;15.10;100.00
19751;BME280;4663;49.120;9.730;2023-08-06T03:51:05;97140.16;;;14.93;100.00
19751;BME280;4663;49.120;9.730;2023-08-06T03:53:31;97132.44;;;15.30;100.00
19751;BME280;4663;49.120;9.730;2023-08-06T03:55:56;97142.44;;;14.96;100.00
19751;BME280;4663;49.120;9.730;2023-08-06T03:58:25;97140.94;;;15.27;100.00
19751;BME280;4663;49.120;9.730;2023-08-06T04:00:58;97140.19;;;14.72;100.00
19751;BME280;4663;49.120;9.730;2023-08-06T04:03:23;97148.84;;;15.08;100.00
19751;BME280;4663;49.120;9.730;2023-08-06T04:05:49;97146.59;;;14.91;100.00
19751;BME280;4663;49.120;9.730;2023-08-06T04:08:14;97134.72;;;15.20;100.00
19751;BME280;4663;49.120;9.730;2023-08-06T04:10:40;97144.94;;;14.97;100.00
19751;BME280;4663;49.120;9.730;2023-08-06T04:13:05;97136.22;;;14.75;100.00
19751;BME280;4663;49.120;9.730;2023-08-06T04:15:33;97139.97;;;14.74;100.00
19751;BME280;4663;49.120;9.730;2023-08-06T04:17:59;97137.69;;;14.71;100.00
19751;BME280;4663;49.120;9.730;2023-08-06T04:20:24;97140.13;;;15.20;100.00
19751;BME280;4663;49.120;9.730;2023-08-06T04:22:50;97136.81;;;15.24;100.00
19751;BME280;4663;49.120;9.730;2023-08-06T04:25:15;97134.50;;;15.28;100.00
19751;BME280;4663;49.120;9.730;2023-08-06T04:27:46;97134.59;;;14.74;100.00
19751;BME280;4663;49.120;9.730;2023-08-06T04:30:11;97133.13;;;14.78;100.00
19751;BME280;4663;49.120;9.730;2023-08-06T04:32:37;97125.81;;;15.12;100.00
19751;BME280;4663;49.120;9.730;2023-08-06T04:35:03;97138.31;;;14.86;100.00
19751;BME280;4663;49.120;9.730;2023-08-06T04:37:28;97136.22;;;14.82;100.00
19751;BME280;4663;49.120;9.730;2023-08-06T04:39:54;97132.50;;;14.76;100.00
19751;BME280;4663;49.120;9.730;2023-08-06T04:42:19;97129.75;;;15.16;100.00
19751;BME280;4663;49.120;9.730;2023-08-06T04:44:45;97128.72;;;15.04;100.00
19751;BME280;4663;49.120;9.730;2023-08-06T04:47:10;97128.53;;;14.99;100.00
19751;BME280;4663;49.120;9.730;2023-08-06T04:49:36;97128.13;;;14.95;100.00
19751;BME280;4663;49.120;9.730;2023-08-06T04:52:01;97132.28;;;14.71;100.00
19751;BME280;4663;49.120;9.730;2023-08-06T04:54:26;97137.25;;;15.01;100.00
19751;BME280;4663;49.120;9.730;2023-08-06T04:56:52;97142.06;;;14.85;100.00
19751;BME280;4663;49.120;9.730;2023-08-06T04:59:17;97131.06;;;15.60;100.00
19751;BME280;4663;49.120;9.730;2023-08-06T05:01:42;97132.72;;;15.61;100.00
19751;BME280;4663;49.120;9.730;2023-08-06T05:04:08;97141.19;;;15.05;100.00
19751;BME280;4663;49.120;9.730;2023-08-06T05:06:33;97135.97;;;15.24;100.00
19751;BME280;4663;49.120;9.730;2023-08-06T05:08:59;97132.53;;;15.62;100.00
19751;BME280;4663;49.120;9.730;2023-08-06T05:11:24;97145.31;;;15.28;100.00
19751;BME280;4663;49.120;9.730;2023-08-06T05:13:50;97144.97;;;15.63;100.00
19751;BME280;4663;49.120;9.730;2023-08-06T05:16:15;97154.91;;;15.17;100.00
19751;BME280;4663;49.120;9.730;2023-08-06T05:18:40;97134.84;;;15.52;100.00
19751;BME280;4663;49.120;9.730;2023-08-06T05:21:07;97142.22;;;14.97;100.00
19751;BME280;4663;49.120;9.730;2023-08-06T05:23:32;97142.94;;;15.52;100.00
19751;BME280;4663;49.120;9.730;2023-08-06T05:25:57;97156.75;;;15.30;100.00
19751;BME280;4663;49.120;9.730;2023-08-06T05:28:23;97155.06;;;15.36;100.00
19751;BME280;4663;49.120;9.730;2023-08-06T05:30:48;97155.75;;;14.90;100.00
19751;BME280;4663;49.120;9.730;2023-08-06T05:33:14;97156.56;;;14.98;100.00
19751;BME280;4663;49.120;9.730;2023-08-06T05:35:40;97154.41;;;15.47;100.00
19751;BME280;4663;49.120;9.730;2023-08-06T05:38:06;97154.06;;;15.23;100.00
19751;BME280;4663;49.120;9.730;2023-08-06T05:40:33;97165.69;;;14.90;100.00
19751;BME280;4663;49.120;9.730;2023-08-06T05:42:59;97165.41;;;15.52;100.00
19751;BME280;4663;49.120;9.730;2023-08-06T05:45:24;97167.38;;;15.25;100.00
19751;BME280;4663;49.120;9.730;2023-08-06T05:47:50;97168.84;;;14.94;100.00
19751;BME280;4663;49.120;9.730;2023-08-06T05:50:15;97171.06;;;15.31;100.00
19751;BME280;4663;49.120;9.730;2023-08-06T05:52:41;97177.97;;;15.13;100.00
19751;BME280;4663;49.120;9.730;2023-08-06T05:55:06;97167.63;;;15.69;100.00
19751;BME280;4663;49.120;9.730;2023-08-06T05:57:32;97172.97;;;15.03;100.00
19751;BME280;4663;49.120;9.730;2023-08-06T05:59:57;97169.03;;;14.99;100.00
19751;BME280;4663;49.120;9.730;2023-08-06T06:02:23;97163.34;;;15.54;100.00
19751;BME280;4663;49.120;9.730;2023-08-06T06:04:48;97162.16;;;15.16;100.00
19751;BME280;4663;49.120;9.730;2023-08-06T06:07:13;97171.09;;;14.83;100.00
19751;BME280;4663;49.120;9.730;2023-08-06T06:09:39;97165.88;;;15.22;100.00
19751;BME280;4663;49.120;9.730;2023-08-06T06:12:06;97165.94;;;15.09;100.00
19751;BME280;4663;49.120;9.730;2023-08-06T06:14:31;97160.28;;;15.24;100.00
19751;BME280;4663;49.120;9.730;2023-08-06T06:16:56;97156.19;;;14.67;100.00
19751;BME280;4663;49.120;9.730;2023-08-06T06:19:22;97173.63;;;14.71;100.00
19751;BME280;4663;49.120;9.730;2023-08-06T06:21:47;97170.44;;;15.08;100.00
19751;BME280;4663;49.120;9.730;2023-08-06T06:24:13;97172.38;;;14.74;100.00
19751;BME280;4663;49.120;9.730;2023-08-06T06:26:38;97170.06;;;14.37;100.00
19751;BME280;4663;49.120;9.730;2023-08-06T06:29:04;97164.66;;;14.44;100.00
19751;BME280;4663;49.120;9.730;2023-08-06T06:31:30;97174.84;;;14.82;100.00
19751;BME280;4663;49.120;9.730;2023-08-06T06:33:55;97170.28;;;14.69;100.00
19751;BME280;4663;49.120;9.730;2023-08-06T06:36:21;97171.97;;;15.11;100.00
19751;BME280;4663;49.120;9.730;2023-08-06T06:38:46;97170.03;;;15.32;100.00
19751;BME280;4663;49.120;9.730;2023-08-06T06:41:12;97176.94;;;15.21;100.00
19751;BME280;4663;49.120;9.730;2023-08-06T06:43:37;97163.53;;;15.53;100.00
19751;BME280;4663;49.120;9.730;2023-08-06T06:46:04;97181.44;;;15.34;100.00
19751;BME280;4663;49.120;9.730;2023-08-06T06:48:32;97175.22;;;15.26;100.00
19751;BME280;4663;49.120;9.730;2023-08-06T06:50:57;97172.13;;;14.96;100.00
19751;BME280;4663;49.120;9.730;2023-08-06T06:53:23;97173.59;;;15.19;100.00
19751;BME280;4663;49.120;9.730;2023-08-06T06:55:53;97169.00;;;15.26;100.00
19751;BME280;4663;49.120;9.730;2023-08-06T06:58:19;97170.94;;;15.78;100.00
19751;BME280;4663;49.120;9.730;2023-08-06T07:00:45;97168.19;;;15.25;100.00
19751;BME280;4663;49.120;9.730;2023-08-06T07:03:11;97174.00;;;15.02;100.00
19751;BME280;4663;49.120;9.730;2023-08-06T07:05:36;97177.75;;;15.14;100.00
19751;BME280;4663;49.120;9.730;2023-08-06T07:08:02;97176.50;;;14.76;100.00
19751;BME280;4663;49.120;9.730;2023-08-06T07:10:27;97176.91;;;14.46;100.00
19751;BME280;4663;49.120;9.730;2023-08-06T07:12:52;97179.22;;;14.76;100.00
19751;BME280;4663;49.120;9.730;2023-08-06T07:15:18;97173.97;;;15.42;100.00
19751;BME280;4663;49.120;9.730;2023-08-06T07:17:43;97170.25;;;15.16;100.00
19751;BME280;4663;49.120;9.730;2023-08-06T07:20:09;97175.25;;;15.13;100.00
19751;BME280;4663;49.120;9.730;2023-08-06T07:22:35;97170.63;;;15.40;100.00
19751;BME280;4663;49.120;9.730;2023-08-06T07:25:01;97165.44;;;15.32;100.00
19751;BME280;4663;49.120;9.730;2023-08-06T07:27:26;97172.75;;;15.32;100.00
19751;BME280;4663;49.120;9.730;2023-08-06T07:29:52;97168.72;;;15.48;100.00
19751;BME280;4663;49.120;9.730;2023-08-06T07:32:17;97167.25;;;15.65;100.00
19751;BME280;4663;49.120;9.730;2023-08-06T07:34:43;97172.44;;;15.60;100.00
19751;BME280;4663;49.120;9.730;2023-08-06T07:37:08;97170.16;;;15.64;100.00
19751;BME280;4663;49.120;9.730;2023-08-06T07:39:34;97176.50;;;15.03;100.00
19751;BME280;4663;49.120;9.730;2023-08-06T07:41:59;97160.81;;;15.60;100.00
19751;BME280;4663;49.120;9.730;2023-08-06T07:44:27;97175.03;;;15.28;100.00
19751;BME280;4663;49.120;9.730;2023-08-06T07:46:52;97177.75;;;15.08;100.00
19751;BME280;4663;49.120;9.730;2023-08-06T07:49:18;97182.53;;;15.12;100.00
19751;BME280;4663;49.120;9.730;2023-08-06T07:51:43;97176.09;;;15.20;100.00
19751;BME280;4663;49.120;9.730;2023-08-06T07:54:08;97176.88;;;15.34;99.95
19751;BME280;4663;49.120;9.730;2023-08-06T07:56:34;97178.19;;;14.98;99.64
19751;BME280;4663;49.120;9.730;2023-08-06T07:59:01;97173.47;;;15.59;100.00
19751;BME280;4663;49.120;9.730;2023-08-06T08:01:26;97187.31;;;14.83;100.00
19751;BME280;4663;49.120;9.730;2023-08-06T08:03:51;97171.31;;;15.29;100.00
19751;BME280;4663;49.120;9.730;2023-08-06T08:06:17;97165.94;;;15.75;99.17
19751;BME280;4663;49.120;9.730;2023-08-06T08:08:42;97170.63;;;15.40;100.00
19751;BME280;4663;49.120;9.730;2023-08-06T08:11:08;97171.72;;;15.85;99.26
19751;BME280;4663;49.120;9.730;2023-08-06T08:13:33;97181.44;;;15.47;100.00
19751;BME280;4663;49.120;9.730;2023-08-06T08:16:00;97186.25;;;15.04;100.00
19751;BME280;4663;49.120;9.730;2023-08-06T08:18:26;97176.69;;;14.55;100.00
19751;BME280;4663;49.120;9.730;2023-08-06T08:20:51;97171.06;;;15.31;100.00
19751;BME280;4663;49.120;9.730;2023-08-06T08:23:17;97171.44;;;15.48;97.01
19751;BME280;4663;49.120;9.730;2023-08-06T08:25:42;97162.13;;;15.89;98.72
19751;BME280;4663;49.120;9.730;2023-08-06T08:28:08;97163.81;;;15.84;98.45
19751;BME280;4663;49.120;9.730;2023-08-06T08:30:33;97170.84;;;15.91;98.30
19751;BME280;4663;49.120;9.730;2023-08-06T08:32:59;97170.84;;;15.98;98.85
19751;BME280;4663;49.120;9.730;2023-08-06T08:35:24;97170.19;;;15.57;98.92
19751;BME280;4663;49.120;9.730;2023-08-06T08:37:49;97168.34;;;15.97;97.65
19751;BME280;4663;49.120;9.730;2023-08-06T08:40:15;97172.88;;;15.57;98.18
19751;BME280;4663;49.120;9.730;2023-08-06T08:42:42;97179.63;;;15.21;100.00
19751;BME280;4663;49.120;9.730;2023-08-06T08:45:12;97178.16;;;15.18;100.00
19751;BME280;4663;49.120;9.730;2023-08-06T08:47:43;97180.25;;;15.16;100.00
19751;BME280;4663;49.120;9.730;2023-08-06T08:50:09;97178.59;;;15.22;100.00
19751;BME280;4663;49.120;9.730;2023-08-06T08:52:38;97262.44;;;15.67;100.00
19751;BME280;4663;49.120;9.730;2023-08-06T08:55:04;97279.13;;;15.31;100.00
19751;BME280;4663;49.120;9.730;2023-08-06T08:57:30;97263.88;;;20.90;100.00
19751;BME280;4663;49.120;9.730;2023-08-06T09:00:54;60433.53;;;-151.66;100.00
19751;BME280;4663;49.120;9.730;2023-08-06T09:04:18;60433.53;;;-151.66;100.00
19751;BME280;4663;49.120;9.730;2023-08-06T09:07:48;60433.53;;;-151.66;100.00
19751;BME280;4663;49.120;9.730;2023-08-06T09:10:16;60433.53;;;-151.66;100.00
19751;BME280;4663;49.120;9.730;2023-08-06T09:12:43;60433.53;;;-151.66;100.00
19751;BME280;4663;49.120;9.730;2023-08-06T09:15:09;60433.53;;;-151.66;100.00
19751;BME280;4663;49.120;9.730;2023-08-06T09:17:36;60433.53;;;-151.66;100.00
19751;BME280;4663;49.120;9.730;2023-08-06T09:20:11;60433.53;;;-151.66;100.00
19751;BME280;4663;49.120;9.730;2023-08-06T09:22:37;60433.53;;;-151.66;100.00
19751;BME280;4663;49.120;9.730;2023-08-06T09:25:02;60433.53;;;-151.66;100.00
19751;BME280;4663;49.120;9.730;2023-08-06T09:27:29;60433.53;;;-151.66;100.00
19751;BME280;4663;49.120;9.730;2023-08-06T09:29:55;60433.53;;;-151.66;100.00
19751;BME280;4663;49.120;9.730;2023-08-06T09:32:20;60433.53;;;-151.66;100.00
19751;BME280;4663;49.120;9.730;2023-08-06T09:34:45;60433.53;;;-151.66;100.00
19751;BME280;4663;49.120;9.730;2023-08-06T09:37:11;60433.53;;;-151.66;100.00
19751;BME280;4663;49.120;9.730;2023-08-06T09:39:38;60433.53;;;-151.66;100.00
19751;BME280;4663;49.120;9.730;2023-08-06T09:42:05;60433.53;;;-151.66;100.00
19751;BME280;4663;49.120;9.730;2023-08-06T09:44:32;60433.53;;;-151.66;100.00
19751;BME280;4663;49.120;9.730;2023-08-06T09:46:59;60433.53;;;-151.66;100.00
19751;BME280;4663;49.120;9.730;2023-08-06T09:49:40;60433.53;;;-151.66;100.00
19751;BME280;4663;49.120;9.730;2023-08-06T09:52:12;60433.53;;;-151.66;100.00
19751;BME280;4663;49.120;9.730;2023-08-06T09:54:37;60433.53;;;-151.66;100.00
19751;BME280;4663;49.120;9.730;2023-08-06T09:57:03;60433.53;;;-151.66;100.00
19751;BME280;4663;49.120;9.730;2023-08-06T09:59:30;60433.53;;;-151.66;100.00
19751;BME280;4663;49.120;9.730;2023-08-06T10:01:57;60433.53;;;-151.66;100.00
19751;BME280;4663;49.120;9.730;2023-08-06T10:04:23;60433.53;;;-151.66;100.00
19751;BME280;4663;49.120;9.730;2023-08-06T10:06:50;60433.53;;;-151.66;100.00
19751;BME280;4663;49.120;9.730;2023-08-06T10:09:15;60433.53;;;-151.66;100.00
19751;BME280;4663;49.120;9.730;2023-08-06T10:11:42;60433.53;;;-151.66;100.00
19751;BME280;4663;49.120;9.730;2023-08-06T10:14:15;60433.53;;;-151.66;100.00
19751;BME280;4663;49.120;9.730;2023-08-06T10:16:42;60433.53;;;-151.66;100.00
19751;BME280;4663;49.120;9.730;2023-08-06T10:19:10;60433.53;;;-151.66;100.00
19751;BME280;4663;49.120;9.730;2023-08-06T10:21:39;60433.53;;;-151.66;100.00
19751;BME280;4663;49.120;9.730;2023-08-06T10:24:08;60433.53;;;-151.66;100.00
19751;BME280;4663;49.120;9.730;2023-08-06T10:26:36;60433.53;;;-151.66;100.00
19751;BME280;4663;49.120;9.730;2023-08-06T10:29:37;60433.53;;;-151.66;100.00
19751;BME280;4663;49.120;9.730;2023-08-06T10:32:03;60433.53;;;-151.66;100.00
19751;BME280;4663;49.120;9.730;2023-08-06T10:34:53;60433.53;;;-151.66;100.00
19751;BME280;4663;49.120;9.730;2023-08-06T10:37:19;60433.53;;;-151.66;100.00
19751;BME280;4663;49.120;9.730;2023-08-06T10:39:49;60433.53;;;-151.66;100.00
19751;BME280;4663;49.120;9.730;2023-08-06T10:42:22;60433.53;;;-151.66;100.00
19751;BME280;4663;49.120;9.730;2023-08-06T10:45:14;60433.53;;;-151.66;100.00
19751;BME280;4663;49.120;9.730;2023-08-06T10:47:41;60433.53;;;-151.66;100.00
19751;BME280;4663;49.120;9.730;2023-08-06T10:50:15;60433.53;;;-151.66;100.00
19751;BME280;4663;49.120;9.730;2023-08-06T10:52:42;60433.53;;;-151.66;100.00
19751;BME280;4663;49.120;9.730;2023-08-06T10:55:08;60433.53;;;-151.66;100.00
19751;BME280;4663;49.120;9.730;2023-08-06T10:57:34;60433.53;;;-151.66;100.00
19751;BME280;4663;49.120;9.730;2023-08-06T11:00:00;60433.53;;;-151.66;100.00
19751;BME280;4663;49.120;9.730;2023-08-06T11:02:25;60433.53;;;-151.66;100.00
19751;BME280;4663;49.120;9.730;2023-08-06T11:04:51;60433.53;;;-151.66;100.00
19751;BME280;4663;49.120;9.730;2023-08-06T11:07:16;60433.53;;;-151.66;100.00
19751;BME280;4663;49.120;9.730;2023-08-06T11:09:42;60433.53;;;-151.66;100.00
19751;BME280;4663;49.120;9.730;2023-08-06T11:12:10;60433.53;;;-151.66;100.00
19751;BME280;4663;49.120;9.730;2023-08-06T11:14:36;60433.53;;;-151.66;100.00
19751;BME280;4663;49.120;9.730;2023-08-06T11:17:02;60433.53;;;-151.66;100.00
19751;BME280;4663;49.120;9.730;2023-08-06T11:19:27;60433.53;;;-151.66;100.00
19751;BME280;4663;49.120;9.730;2023-08-06T11:21:54;60433.53;;;-151.66;100.00
19751;BME280;4663;49.120;9.730;2023-08-06T11:24:20;60433.53;;;-151.66;100.00
19751;BME280;4663;49.120;9.730;2023-08-06T11:26:45;60433.53;;;-151.66;100.00
19751;BME280;4663;49.120;9.730;2023-08-06T11:29:11;60433.53;;;-151.66;100.00
19751;BME280;4663;49.120;9.730;2023-08-06T11:31:36;60433.53;;;-151.66;100.00
19751;BME280;4663;49.120;9.730;2023-08-06T11:34:02;60433.53;;;-151.66;100.00
19751;BME280;4663;49.120;9.730;2023-08-06T11:36:34;60433.53;;;-151.66;100.00
19751;BME280;4663;49.120;9.730;2023-08-06T11:39:02;60433.53;;;-151.66;100.00
19751;BME280;4663;49.120;9.730;2023-08-06T11:41:31;60433.53;;;-151.66;100.00
19751;BME280;4663;49.120;9.730;2023-08-06T11:43:58;60433.53;;;-151.66;100.00
19751;BME280;4663;49.120;9.730;2023-08-06T11:46:24;60433.53;;;-151.66;100.00
19751;BME280;4663;49.120;9.730;2023-08-06T11:48:59;60433.53;;;-151.66;100.00
19751;BME280;4663;49.120;9.730;2023-08-06T11:51:25;60433.53;;;-151.66;100.00
19751;BME280;4663;49.120;9.730;2023-08-06T11:53:56;60433.53;;;-151.66;100.00
19751;BME280;4663;49.120;9.730;2023-08-06T11:56:21;60433.53;;;-151.66;100.00
19751;BME280;4663;49.120;9.730;2023-08-06T11:58:47;60433.53;;;-151.66;100.00
19751;BME280;4663;49.120;9.730;2023-08-06T12:01:13;60433.53;;;-151.66;100.00
19751;BME280;4663;49.120;9.730;2023-08-06T12:03:39;60433.53;;;-151.66;100.00
19751;BME280;4663;49.120;9.730;2023-08-06T12:06:05;60433.53;;;-151.66;100.00
19751;BME280;4663;49.120;9.730;2023-08-06T12:08:32;60433.53;;;-151.66;100.00
19751;BME280;4663;49.120;9.730;2023-08-06T12:10:57;60433.53;;;-151.66;100.00
19751;BME280;4663;49.120;9.730;2023-08-06T12:13:23;60433.53;;;-151.66;100.00
19751;BME280;4663;49.120;9.730;2023-08-06T12:15:48;60433.53;;;-151.66;100.00
19751;BME280;4663;49.120;9.730;2023-08-06T12:18:13;60433.53;;;-151.66;100.00
19751;BME280;4663;49.120;9.730;2023-08-06T12:20:39;60433.53;;;-151.66;100.00
19751;BME280;4663;49.120;9.730;2023-08-06T12:23:04;60433.53;;;-151.66;100.00
19751;BME280;4663;49.120;9.730;2023-08-06T12:25:30;60433.53;;;-151.66;100.00
19751;BME280;4663;49.120;9.730;2023-08-06T12:27:55;60433.53;;;-151.66;100.00
19751;BME280;4663;49.120;9.730;2023-08-06T12:30:20;60433.53;;;-151.66;100.00
19751;BME280;4663;49.120;9.730;2023-08-06T12:32:46;60433.53;;;-151.66;100.00
19751;BME280;4663;49.120;9.730;2023-08-06T12:35:11;60433.53;;;-151.66;100.00
19751;BME280;4663;49.120;9.730;2023-08-06T12:37:37;60433.53;;;-151.66;100.00
19751;BME280;4663;49.120;9.730;2023-08-06T12:40:04;60433.53;;;-151.66;100.00
19751;BME280;4663;49.120;9.730;2023-08-06T12:42:29;60433.53;;;-151.66;100.00
19751;BME280;4663;49.120;9.730;2023-08-06T12:44:55;60433.53;;;-151.66;100.00
19751;BME280;4663;49.120;9.730;2023-08-06T12:47:20;60433.53;;;-151.66;100.00
19751;BME280;4663;49.120;9.730;2023-08-06T12:49:46;60433.53;;;-151.66;100.00
19751;BME280;4663;49.120;9.730;2023-08-06T12:52:11;60433.53;;;-151.66;100.00
19751;BME280;4663;49.120;9.730;2023-08-06T12:54:40;60433.53;;;-151.66;100.00
19751;BME280;4663;49.120;9.730;2023-08-06T12:57:05;60433.53;;;-151.66;100.00
19751;BME280;4663;49.120;9.730;2023-08-06T12:59:31;60433.53;;;-151.66;100.00
19751;BME280;4663;49.120;9.730;2023-08-06T13:01:58;60433.53;;;-151.66;100.00